createdAt,value
2023-03-18T00:01:33.445Z,62.87
2023-03-18T00:04:02.332Z,63.13
2023-03-18T00:06:31.002Z,62.79
2023-03-18T00:08:59.483Z,62.50
2023-03-18T00:11:28.130Z,64.37
2023-03-18T00:13:56.708Z,64.28
2023-03-18T00:16:27.289Z,63.69
2023-03-18T00:18:55.807Z,63.50
2023-03-18T00:21:24.743Z,63.66
2023-03-18T00:23:56.672Z,63.32
2023-03-18T00:26:27.377Z,63.64
2023-03-18T00:28:57.986Z,64.00
2023-03-18T00:31:28.509Z,64.17
2023-03-18T00:33:57.142Z,63.79
2023-03-18T00:36:28.441Z,63.77
2023-03-18T00:38:58.233Z,63.33
2023-03-18T00:41:28.353Z,63.17
2023-03-18T00:43:58.396Z,62.29
2023-03-18T00:46:37.992Z,60.58
2023-03-18T00:49:08.950Z,60.77
2023-03-18T00:51:38.598Z,60.83
2023-03-18T00:54:09.982Z,61.05
2023-03-18T00:56:39.776Z,63.28
2023-03-18T00:59:09.012Z,63.65
2023-03-18T01:01:39.077Z,62.48
2023-03-18T01:04:08.020Z,60.72
2023-03-18T01:06:38.649Z,60.57
2023-03-18T01:09:10.146Z,60.78
2023-03-18T01:11:39.314Z,62.40
2023-03-18T01:14:08.028Z,62.24
2023-03-18T01:16:36.685Z,63.56
2023-03-18T01:19:05.207Z,63.74
2023-03-18T01:21:34.003Z,63.34
2023-03-18T01:24:04.547Z,63.92
2023-03-18T01:26:34.675Z,63.89
2023-03-18T01:29:04.150Z,64.33
2023-03-18T01:31:34.871Z,63.52
2023-03-18T01:34:07.847Z,62.19
2023-03-18T01:36:45.046Z,61.55
2023-03-18T01:39:14.514Z,61.57
2023-03-18T01:41:43.094Z,62.97
2023-03-18T01:44:15.506Z,64.00
2023-03-18T01:46:50.103Z,63.43
2023-03-18T01:49:39.789Z,63.55
2023-03-18T01:52:20.915Z,62.51
2023-03-18T01:55:03.649Z,63.10
2023-03-18T01:57:34.149Z,63.04
2023-03-18T02:00:04.831Z,64.03
2023-03-18T02:02:44.898Z,63.64
2023-03-18T02:05:19.156Z,63.66
2023-03-18T02:07:47.983Z,61.85
2023-03-18T02:10:29.807Z,61.60
2023-03-18T02:13:06.856Z,60.89
2023-03-18T02:15:47.697Z,60.08
2023-03-18T02:18:25.327Z,62.61
2023-03-18T02:21:11.618Z,64.65
2023-03-18T02:24:01.877Z,64.60
2023-03-18T02:27:02.128Z,64.06
2023-03-18T02:29:38.625Z,63.77
2023-03-18T02:32:10.852Z,63.95
2023-03-18T02:34:41.020Z,64.62
2023-03-18T02:37:09.848Z,64.01
2023-03-18T02:39:39.669Z,64.47
2023-03-18T02:42:13.273Z,64.09
2023-03-18T02:44:47.202Z,65.83
2023-03-18T02:48:08.331Z,66.53
2023-03-18T02:50:36.871Z,65.94
2023-03-18T02:53:05.682Z,63.11
2023-03-18T02:55:34.166Z,63.30
2023-03-18T02:58:02.653Z,63.98
2023-03-18T03:00:31.805Z,65.90
2023-03-18T03:03:01.828Z,63.95
2023-03-18T03:05:30.312Z,65.04
2023-03-18T03:07:58.813Z,66.03
2023-03-18T03:10:27.591Z,67.24
2023-03-18T03:12:57.372Z,67.43
2023-03-18T03:15:26.845Z,66.15
2023-03-18T03:17:58.489Z,65.62
2023-03-18T03:20:27.169Z,65.27
2023-03-18T03:22:55.743Z,65.79
2023-03-18T03:25:24.150Z,65.78
2023-03-18T03:27:52.761Z,66.61
2023-03-18T03:30:23.053Z,66.40
2023-03-18T03:32:51.879Z,67.62
2023-03-18T03:35:21.591Z,66.98
2023-03-18T03:37:50.680Z,65.64
2023-03-18T03:40:20.578Z,64.34
2023-03-18T03:42:49.403Z,64.46
2023-03-18T03:45:19.346Z,66.60
2023-03-18T03:47:48.341Z,65.84
2023-03-18T03:50:18.304Z,66.70
2023-03-18T03:52:47.283Z,65.77
2023-03-18T03:55:19.684Z,66.29
2023-03-18T03:57:48.578Z,66.30
2023-03-18T04:00:21.392Z,65.65
2023-03-18T04:02:52.730Z,66.41
2023-03-18T04:05:24.861Z,65.88
2023-03-18T04:07:54.278Z,65.19
2023-03-18T04:10:32.334Z,64.74
2023-03-18T04:13:01.300Z,64.72
2023-03-18T04:15:29.933Z,65.19
2023-03-18T04:18:02.355Z,65.67
2023-03-18T04:20:32.083Z,64.91
2023-03-18T04:23:01.338Z,65.14
2023-03-18T04:25:30.724Z,65.13
2023-03-18T04:27:59.465Z,66.16
2023-03-18T04:30:28.454Z,65.87
2023-03-18T04:33:07.206Z,65.70
2023-03-18T04:35:37.805Z,66.49
2023-03-18T04:38:06.779Z,65.56
2023-03-18T04:40:35.384Z,66.13
2023-03-18T04:43:04.190Z,66.05
2023-03-18T04:45:32.779Z,66.81
2023-03-18T04:48:02.372Z,68.08
2023-03-18T04:50:33.376Z,67.68
2023-03-18T04:53:03.622Z,67.20
2023-03-18T04:55:32.686Z,67.99
2023-03-18T04:58:01.996Z,66.11
2023-03-18T05:00:32.113Z,66.81
2023-03-18T05:03:13.045Z,67.39
2023-03-18T05:05:42.261Z,67.60
2023-03-18T05:08:11.259Z,66.65
2023-03-18T05:10:40.389Z,67.80
2023-03-18T05:13:09.670Z,67.78
2023-03-18T05:15:38.517Z,68.61
2023-03-18T05:18:07.040Z,66.45
2023-03-18T05:20:36.229Z,66.47
2023-03-18T05:23:06.015Z,66.77
2023-03-18T05:25:50.066Z,67.60
2023-03-18T05:28:18.897Z,67.69
2023-03-18T05:30:54.033Z,67.78
2023-03-18T05:33:23.436Z,67.44
2023-03-18T05:35:57.110Z,67.61
2023-03-18T05:38:30.016Z,68.38
2023-03-18T05:40:58.919Z,69.18
2023-03-18T05:43:33.796Z,69.18
2023-03-18T05:46:02.605Z,68.82
2023-03-18T05:48:47.828Z,69.21
2023-03-18T05:51:16.269Z,69.59
2023-03-18T05:53:44.856Z,68.37
2023-03-18T05:56:26.461Z,67.38
2023-03-18T05:58:58.821Z,69.09
2023-03-18T06:01:44.797Z,70.43
2023-03-18T06:04:13.376Z,69.42
2023-03-18T06:06:42.304Z,69.08
2023-03-18T06:09:13.497Z,68.80
2023-03-18T06:11:44.713Z,68.94
2023-03-18T06:14:13.660Z,68.27
2023-03-18T06:16:43.445Z,67.90
2023-03-18T06:19:13.611Z,70.40
2023-03-18T06:21:42.638Z,69.79
2023-03-18T06:24:11.463Z,69.21
2023-03-18T06:26:40.025Z,68.57
2023-03-18T06:29:08.622Z,68.23
2023-03-18T06:31:37.861Z,69.57
2023-03-18T06:34:07.290Z,67.99
2023-03-18T06:36:37.733Z,69.19
2023-03-18T06:39:08.124Z,70.02
2023-03-18T06:41:37.311Z,69.50
2023-03-18T06:44:21.085Z,69.00
2023-03-18T06:46:49.726Z,68.65
2023-03-18T06:49:18.915Z,68.91
2023-03-18T06:51:51.839Z,68.53
2023-03-18T06:54:20.456Z,68.81
2023-03-18T06:56:50.237Z,67.96
2023-03-18T06:59:21.650Z,67.82
2023-03-18T07:01:50.637Z,67.80
2023-03-18T07:04:20.939Z,68.92
2023-03-18T07:06:50.236Z,68.55
2023-03-18T07:09:20.051Z,67.93
2023-03-18T07:11:53.769Z,67.14
2023-03-18T07:14:23.746Z,67.25
2023-03-18T07:16:52.555Z,67.30
2023-03-18T07:19:22.157Z,66.75
2023-03-18T07:21:51.084Z,66.90
2023-03-18T07:24:21.667Z,67.18
2023-03-18T07:26:53.739Z,67.70
2023-03-18T07:29:22.320Z,67.97
2023-03-18T07:31:51.352Z,67.46
2023-03-18T07:34:20.086Z,67.66
2023-03-18T07:36:48.729Z,68.40
2023-03-18T07:39:17.315Z,68.09
2023-03-18T07:41:45.790Z,68.13
2023-03-18T07:44:21.970Z,68.18
2023-03-18T07:46:50.510Z,69.34
2023-03-18T07:49:19.040Z,68.82
2023-03-18T07:51:47.484Z,68.15
2023-03-18T07:54:16.286Z,68.01
2023-03-18T07:56:44.894Z,69.06
2023-03-18T07:59:13.388Z,68.88
2023-03-18T08:01:42.087Z,68.20
2023-03-18T08:04:11.914Z,69.50
2023-03-18T08:06:40.426Z,69.15
2023-03-18T08:09:09.231Z,68.99
2023-03-18T08:11:38.305Z,68.45
2023-03-18T08:14:07.376Z,68.35
2023-03-18T08:16:35.883Z,68.46
2023-03-18T08:19:04.442Z,68.25
2023-03-18T08:21:32.903Z,68.49
2023-03-18T08:24:01.438Z,68.67
2023-03-18T08:26:30.030Z,68.99
2023-03-18T08:28:58.444Z,68.67
2023-03-18T08:31:26.969Z,68.52
2023-03-18T08:33:56.659Z,68.52
2023-03-18T08:36:27.149Z,68.80
2023-03-18T08:38:56.662Z,68.09
2023-03-18T08:41:26.308Z,68.39
2023-03-18T08:43:57.522Z,68.35
2023-03-18T08:46:26.179Z,68.72
2023-03-18T08:48:54.680Z,68.23
2023-03-18T08:51:23.367Z,68.76
2023-03-18T08:53:52.002Z,67.39
2023-03-18T08:56:20.688Z,67.07
2023-03-18T08:58:49.177Z,67.03
2023-03-18T09:01:19.926Z,67.13
2023-03-18T09:03:52.038Z,67.51
2023-03-18T09:06:21.128Z,67.62
2023-03-18T09:08:49.660Z,67.38
2023-03-18T09:11:18.728Z,66.81
2023-03-18T09:13:47.270Z,66.41
2023-03-18T09:16:16.167Z,66.47
2023-03-18T09:18:47.019Z,66.19
2023-03-18T09:21:17.433Z,66.47
2023-03-18T09:23:46.142Z,66.99
2023-03-18T09:26:15.061Z,67.15
2023-03-18T09:28:43.607Z,67.48
2023-03-18T09:31:13.199Z,67.16
2023-03-18T09:33:43.484Z,67.84
2023-03-18T09:36:11.960Z,68.43
2023-03-18T09:38:41.431Z,67.31
2023-03-18T09:41:35.631Z,66.45
2023-03-18T09:44:24.554Z,64.92
2023-03-18T09:47:42.234Z,66.23
2023-03-18T09:50:48.756Z,64.94
2023-03-18T09:53:31.859Z,64.44
2023-03-18T09:56:03.021Z,64.91
2023-03-18T09:59:14.965Z,65.00
2023-03-18T10:01:46.475Z,65.68
2023-03-18T10:04:26.884Z,66.11
2023-03-18T10:07:03.069Z,66.05
2023-03-18T10:09:39.379Z,66.21
2023-03-18T10:12:35.527Z,66.54
2023-03-18T10:15:20.742Z,65.72
2023-03-18T10:18:28.137Z,65.81
2023-03-18T10:21:09.245Z,65.30
2023-03-18T10:24:04.555Z,64.53
2023-03-18T10:26:56.591Z,64.85
2023-03-18T10:29:58.551Z,64.83
2023-03-18T10:32:52.369Z,64.64
2023-03-18T10:36:02.291Z,64.72
2023-03-18T10:38:32.440Z,64.24
2023-03-18T10:41:02.053Z,64.08
2023-03-18T10:43:32.774Z,64.40
2023-03-18T10:46:05.318Z,64.70
2023-03-18T10:48:40.226Z,63.94
2023-03-18T10:51:45.569Z,64.03
2023-03-18T10:54:39.626Z,65.16
2023-03-18T10:57:18.456Z,64.82
2023-03-18T10:59:47.812Z,65.64
2023-03-18T11:02:39.104Z,65.84
2023-03-18T11:05:23.738Z,67.00
2023-03-18T11:08:01.280Z,66.53
2023-03-18T11:10:37.114Z,65.60
2023-03-18T11:13:06.663Z,65.04
2023-03-18T11:15:50.316Z,65.35
2023-03-18T11:18:24.643Z,64.77
2023-03-18T11:21:01.563Z,64.24
2023-03-18T11:23:56.524Z,64.85
2023-03-18T11:26:31.048Z,64.85
2023-03-18T11:29:11.004Z,64.52
2023-03-18T11:31:52.329Z,63.98
2023-03-18T11:34:21.573Z,63.72
2023-03-18T11:37:11.951Z,63.66
2023-03-18T11:39:41.760Z,63.24
2023-03-18T11:42:40.615Z,62.99
2023-03-18T11:45:40.860Z,62.99
2023-03-18T11:48:37.599Z,63.41
2023-03-18T11:51:35.209Z,63.24
2023-03-18T11:54:45.961Z,63.37
2023-03-18T11:57:50.087Z,63.37
2023-03-18T12:00:52.805Z,62.65
2023-03-18T12:04:03.679Z,62.25
2023-03-18T12:06:41.624Z,63.28
2023-03-18T12:09:37.099Z,62.70
2023-03-18T12:12:44.556Z,62.12
2023-03-18T12:15:23.530Z,62.76
2023-03-18T12:18:25.771Z,62.96
2023-03-18T12:21:15.450Z,63.21
2023-03-18T12:24:05.022Z,62.43
2023-03-18T12:27:14.564Z,62.86
2023-03-18T12:30:14.540Z,62.47
2023-03-18T12:32:56.454Z,61.77
2023-03-18T12:35:48.773Z,61.59
2023-03-18T12:38:38.507Z,61.71
2023-03-18T12:41:27.841Z,62.80
2023-03-18T12:44:23.039Z,62.30
2023-03-18T12:47:11.987Z,62.11
2023-03-18T12:50:00.954Z,61.51
2023-03-18T12:53:00.243Z,60.49
2023-03-18T12:55:37.052Z,60.61
2023-03-18T12:58:19.285Z,60.12
2023-03-18T13:01:09.906Z,59.43
2023-03-18T13:03:44.753Z,58.87
2023-03-18T13:06:44.639Z,60.07
2023-03-18T13:09:31.922Z,60.81
2023-03-18T13:12:16.660Z,60.02
2023-03-18T13:14:44.996Z,60.22
2023-03-18T13:17:20.889Z,59.96
2023-03-18T13:19:49.568Z,60.86
2023-03-18T13:23:09.859Z,60.39
2023-03-18T13:25:56.826Z,61.83
2023-03-18T13:28:50.343Z,61.65
2023-03-18T13:31:47.585Z,62.08
2023-03-18T13:34:57.176Z,61.42
2023-03-18T13:37:50.163Z,61.45
2023-03-18T13:41:07.819Z,62.08
2023-03-18T13:43:40.602Z,61.93
2023-03-18T13:46:33.137Z,61.29
2023-03-18T13:49:03.425Z,61.49
2023-03-18T13:51:32.144Z,62.11
2023-03-18T13:54:08.865Z,62.75
2023-03-18T13:56:43.354Z,62.14
2023-03-18T13:59:33.318Z,61.96
2023-03-18T14:02:29.599Z,62.12
2023-03-18T14:04:59.700Z,62.11
2023-03-18T14:07:28.740Z,62.20
2023-03-18T14:10:18.281Z,61.96
2023-03-18T14:12:48.596Z,61.77
2023-03-18T14:15:44.606Z,61.69
2023-03-18T14:18:28.397Z,61.67
2023-03-18T14:21:02.265Z,61.61
2023-03-18T14:23:40.084Z,61.35
2023-03-18T14:26:25.306Z,60.95
2023-03-18T14:29:22.679Z,61.19
2023-03-18T14:32:02.747Z,61.06
2023-03-18T14:34:55.478Z,61.28
2023-03-18T14:37:30.489Z,61.11
2023-03-18T14:40:17.883Z,61.23
2023-03-18T14:42:59.775Z,61.49
2023-03-18T14:45:35.617Z,60.68
2023-03-18T14:48:17.779Z,60.73
2023-03-18T14:50:52.374Z,60.64
2023-03-18T14:54:01.379Z,60.91
2023-03-18T14:56:36.968Z,61.04
2023-03-18T14:59:05.385Z,60.53
2023-03-18T15:01:44.467Z,60.92
2023-03-18T15:04:25.250Z,60.96
2023-03-18T15:06:56.911Z,60.85
2023-03-18T15:09:32.603Z,60.92
2023-03-18T15:12:16.700Z,61.31
2023-03-18T15:14:45.319Z,62.56
2023-03-18T15:17:17.356Z,62.37
2023-03-18T15:19:46.553Z,62.49
2023-03-18T15:22:28.528Z,62.62
2023-03-18T15:25:08.590Z,62.92
2023-03-18T15:27:37.481Z,62.74
2023-03-18T15:30:07.814Z,63.07
2023-03-18T15:32:49.974Z,62.76
2023-03-18T15:35:26.799Z,62.67
2023-03-18T15:38:19.360Z,63.30
2023-03-18T15:41:10.626Z,63.26
2023-03-18T15:43:45.154Z,62.91
2023-03-18T15:46:25.887Z,63.12
2023-03-18T15:48:57.664Z,62.76
2023-03-18T15:51:48.139Z,64.32
2023-03-18T15:54:24.954Z,64.24
2023-03-18T15:56:55.337Z,64.35
2023-03-18T15:59:35.034Z,63.95
2023-03-18T16:02:05.980Z,63.94
2023-03-18T16:04:35.574Z,63.73
2023-03-18T16:07:04.570Z,63.51
2023-03-18T16:09:34.703Z,63.30
2023-03-18T16:12:13.980Z,63.03
2023-03-18T16:14:45.486Z,63.10
2023-03-18T16:17:15.902Z,63.38
2023-03-18T16:19:45.825Z,64.28
2023-03-18T16:22:15.440Z,64.32
2023-03-18T16:24:44.348Z,64.96
2023-03-18T16:27:41.154Z,65.44
2023-03-18T16:30:23.302Z,65.52
2023-03-18T16:32:53.207Z,66.26
2023-03-18T16:35:34.073Z,65.50
2023-03-18T16:38:02.776Z,65.97
2023-03-18T16:40:33.333Z,65.20
2023-03-18T16:43:02.312Z,66.29
2023-03-18T16:45:33.970Z,66.25
2023-03-18T16:48:06.914Z,66.67
2023-03-18T16:50:39.221Z,66.93
2023-03-18T16:53:18.151Z,66.86
2023-03-18T16:55:54.017Z,66.09
2023-03-18T16:58:30.739Z,67.07
2023-03-18T17:01:00.208Z,67.64
2023-03-18T17:03:29.454Z,68.07
2023-03-18T17:05:58.503Z,70.20
2023-03-18T17:08:26.979Z,71.26
2023-03-18T17:10:59.722Z,71.87
2023-03-18T17:13:32.290Z,72.72
2023-03-18T17:16:01.862Z,74.32
2023-03-18T17:18:30.349Z,75.43
2023-03-18T17:20:58.849Z,76.45
2023-03-18T17:23:28.709Z,76.93
2023-03-18T17:26:00.329Z,77.26
2023-03-18T17:28:35.982Z,77.64
2023-03-18T17:31:05.257Z,78.84
2023-03-18T17:33:36.080Z,79.47
2023-03-18T17:36:07.004Z,79.02
2023-03-18T17:38:36.294Z,80.67
2023-03-18T17:41:14.352Z,81.56
2023-03-18T17:43:42.908Z,81.78
2023-03-18T17:46:11.554Z,83.23
2023-03-18T17:48:41.207Z,80.72
2023-03-18T17:51:19.098Z,82.19
2023-03-18T17:53:59.201Z,80.31
2023-03-18T17:56:28.919Z,79.36
2023-03-18T17:58:57.418Z,80.64
2023-03-18T18:01:29.030Z,81.08
2023-03-18T18:03:59.835Z,84.84
2023-03-18T18:06:29.856Z,86.48
2023-03-18T18:09:00.716Z,86.43
2023-03-18T18:11:38.017Z,83.68
2023-03-18T18:14:29.086Z,82.90
2023-03-18T18:16:57.653Z,84.29
2023-03-18T18:19:26.221Z,83.62
2023-03-18T18:21:55.216Z,83.72
2023-03-18T18:24:29.232Z,87.83
2023-03-18T18:26:58.407Z,89.60
2023-03-18T18:29:29.647Z,90.45
2023-03-18T18:31:58.384Z,90.04
2023-03-18T18:34:26.784Z,90.88
2023-03-18T18:36:55.303Z,91.89
2023-03-18T18:39:24.485Z,91.95
2023-03-18T18:41:53.113Z,92.19
2023-03-18T18:44:22.425Z,92.35
2023-03-18T18:46:50.957Z,91.46
2023-03-18T18:49:24.545Z,89.18
2023-03-18T18:51:55.771Z,88.96
2023-03-18T18:54:25.262Z,88.10
2023-03-18T18:56:53.734Z,87.55
2023-03-18T18:59:27.110Z,87.16
2023-03-18T19:01:56.962Z,86.51
2023-03-18T19:04:25.418Z,86.16
2023-03-18T19:06:54.198Z,85.97
2023-03-18T19:09:26.072Z,86.45
2023-03-18T19:11:56.602Z,87.00
2023-03-18T19:14:29.638Z,86.98
2023-03-18T19:16:59.931Z,86.49
2023-03-18T19:19:31.593Z,85.48
2023-03-18T19:22:00.568Z,85.58
2023-03-18T19:24:31.575Z,87.44
2023-03-18T19:27:03.338Z,87.72
2023-03-18T19:29:35.709Z,86.92
2023-03-18T19:32:04.609Z,86.06
2023-03-18T19:34:34.014Z,86.23
2023-03-18T19:37:06.022Z,85.73
2023-03-18T19:39:34.382Z,85.25
2023-03-18T19:42:02.818Z,85.49
2023-03-18T19:44:31.365Z,85.32
2023-03-18T19:47:01.266Z,84.93
2023-03-18T19:49:35.257Z,85.05
2023-03-18T19:52:17.333Z,84.65
2023-03-18T19:54:47.650Z,83.89
2023-03-18T19:57:20.408Z,83.87
2023-03-18T19:59:50.492Z,84.22
2023-03-18T20:02:30.650Z,83.81
2023-03-18T20:05:02.342Z,83.95
2023-03-18T20:07:35.440Z,84.10
2023-03-18T20:10:04.362Z,84.32
2023-03-18T20:12:49.399Z,84.12
2023-03-18T20:15:25.259Z,83.57
2023-03-18T20:17:54.091Z,83.15
2023-03-18T20:20:31.485Z,82.92
2023-03-18T20:23:03.609Z,82.99
2023-03-18T20:25:42.490Z,83.23
2023-03-18T20:28:17.804Z,83.40
2023-03-18T20:30:50.858Z,82.47
2023-03-18T20:33:20.799Z,81.08
2023-03-18T20:35:52.660Z,81.16
2023-03-18T20:38:24.746Z,81.73
2023-03-18T20:40:53.420Z,82.58
2023-03-18T20:43:24.163Z,83.22
2023-03-18T20:45:53.161Z,83.74
2023-03-18T20:48:25.104Z,83.32
2023-03-18T20:50:55.405Z,82.93
2023-03-18T20:53:28.713Z,83.57
2023-03-18T20:55:57.737Z,83.40
2023-03-18T20:58:29.255Z,82.16
2023-03-18T21:00:57.959Z,81.81
2023-03-18T21:03:30.749Z,81.48
2023-03-18T21:06:01.701Z,81.90
2023-03-18T21:08:32.188Z,81.04
2023-03-18T21:11:02.191Z,82.18
2023-03-18T21:13:39.120Z,82.85
2023-03-18T21:16:14.667Z,82.81
2023-03-18T21:18:45.924Z,81.72
2023-03-18T21:21:20.826Z,81.92
2023-03-18T21:23:49.937Z,81.99
2023-03-18T21:26:18.844Z,81.21
2023-03-18T21:28:47.263Z,81.91
2023-03-18T21:31:24.352Z,82.87
2023-03-18T21:33:53.691Z,82.81
2023-03-18T21:36:22.623Z,82.08
2023-03-18T21:38:51.088Z,81.01
2023-03-18T21:41:28.141Z,80.77
2023-03-18T21:43:56.846Z,81.79
2023-03-18T21:46:28.588Z,81.93
2023-03-18T21:48:57.403Z,83.23
2023-03-18T21:51:39.897Z,83.00
2023-03-18T21:54:19.313Z,84.44
2023-03-18T21:56:47.805Z,86.22
2023-03-18T21:59:16.478Z,86.26
2023-03-18T22:01:44.955Z,86.42
2023-03-18T22:04:13.550Z,86.36
2023-03-18T22:06:42.028Z,86.31
2023-03-18T22:09:10.842Z,86.03
2023-03-18T22:11:39.372Z,86.21
2023-03-18T22:14:13.494Z,85.63
2023-03-18T22:16:41.789Z,86.21
2023-03-18T22:19:10.132Z,86.45
2023-03-18T22:21:38.510Z,85.38
2023-03-18T22:24:10.602Z,84.73
2023-03-18T22:26:39.019Z,83.97
2023-03-18T22:29:07.419Z,81.95
2023-03-18T22:31:42.484Z,82.43
2023-03-18T22:34:24.219Z,81.82
2023-03-18T22:36:53.647Z,82.96
2023-03-18T22:39:22.110Z,82.61
2023-03-18T22:41:50.465Z,82.94
2023-03-18T22:44:24.318Z,83.72
2023-03-18T22:46:52.777Z,84.31
2023-03-18T22:49:21.204Z,85.34
2023-03-18T22:51:49.674Z,87.14
2023-03-18T22:54:19.157Z,87.14
2023-03-18T22:56:47.574Z,86.31
2023-03-18T22:59:16.173Z,86.73
2023-03-18T23:01:44.736Z,85.66
2023-03-18T23:04:13.384Z,86.46
2023-03-18T23:06:41.849Z,87.30
2023-03-18T23:09:10.285Z,87.34
2023-03-18T23:11:38.742Z,87.83
2023-03-18T23:14:10.681Z,88.36
2023-03-18T23:16:39.162Z,88.58
2023-03-18T23:19:07.569Z,88.72
2023-03-18T23:21:35.977Z,89.97
2023-03-18T23:24:04.675Z,88.90
2023-03-18T23:26:33.176Z,88.41
2023-03-18T23:29:02.925Z,88.76
2023-03-18T23:31:32.223Z,88.70
2023-03-18T23:34:00.761Z,88.46
2023-03-18T23:36:29.160Z,88.07
2023-03-18T23:38:57.740Z,88.85
2023-03-18T23:41:26.216Z,89.20
2023-03-18T23:43:54.769Z,87.39
2023-03-18T23:46:23.263Z,87.85
2023-03-18T23:48:51.788Z,87.77
2023-03-18T23:51:20.215Z,89.14
2023-03-18T23:53:48.636Z,90.19
2023-03-18T23:56:17.456Z,89.19
2023-03-18T23:58:46.004Z,88.70
